createdAt,value
2022-10-15T00:00:23.285Z,13.71
2022-10-15T00:01:23.430Z,13.72
2022-10-15T00:02:23.302Z,13.72
2022-10-15T00:03:23.308Z,13.74
2022-10-15T00:04:23.324Z,13.75
2022-10-15T00:05:23.328Z,13.73
2022-10-15T00:06:23.343Z,13.76
2022-10-15T00:07:23.613Z,13.76
2022-10-15T00:08:23.368Z,13.76
2022-10-15T00:09:23.383Z,13.77
2022-10-15T00:10:23.397Z,13.76
2022-10-15T00:11:23.408Z,13.77
2022-10-15T00:12:23.425Z,13.77
2022-10-15T00:13:23.431Z,13.77
2022-10-15T00:14:23.446Z,13.78
2022-10-15T00:15:23.446Z,13.78
2022-10-15T00:16:23.464Z,13.79
2022-10-15T00:17:23.653Z,13.78
2022-10-15T00:18:23.484Z,13.79
2022-10-15T00:19:23.493Z,13.78
2022-10-15T00:20:23.489Z,13.79
2022-10-15T00:21:23.501Z,13.79
2022-10-15T00:22:23.733Z,13.80
2022-10-15T00:23:23.520Z,13.80
2022-10-15T00:24:23.534Z,13.79
2022-10-15T00:25:23.542Z,13.80
2022-10-15T00:26:23.553Z,13.80
2022-10-15T00:27:23.562Z,13.81
2022-10-15T00:28:23.593Z,13.80
2022-10-15T00:29:23.588Z,13.80
2022-10-15T00:30:23.597Z,13.79
2022-10-15T00:31:23.608Z,13.80
2022-10-15T00:32:23.972Z,13.79
2022-10-15T00:33:23.621Z,13.79
2022-10-15T00:34:23.626Z,13.79
2022-10-15T00:35:23.631Z,13.80
2022-10-15T00:36:23.648Z,13.80
2022-10-15T00:37:23.654Z,13.80
2022-10-15T00:38:23.665Z,13.79
2022-10-15T00:39:23.679Z,13.81
2022-10-15T00:40:23.692Z,13.80
2022-10-15T00:41:23.703Z,13.80
2022-10-15T00:42:23.989Z,13.81
2022-10-15T00:43:23.726Z,13.81
2022-10-15T00:44:23.733Z,13.81
2022-10-15T00:45:23.745Z,13.81
2022-10-15T01:03:24.308Z,13.85
2022-10-15T01:04:23.956Z,13.85
2022-10-15T01:05:23.967Z,13.85
2022-10-15T01:06:23.979Z,13.86
2022-10-15T01:07:23.987Z,13.86
2022-10-15T01:08:24.000Z,13.86
2022-10-15T01:09:24.011Z,13.85
2022-10-15T01:10:24.017Z,13.86
2022-10-15T01:11:24.030Z,13.85
2022-10-15T01:12:24.386Z,13.85
2022-10-15T01:13:24.057Z,13.84
2022-10-15T01:14:24.064Z,13.84
2022-10-15T01:15:24.088Z,13.83
2022-10-15T01:16:24.081Z,13.83
2022-10-15T01:17:24.295Z,13.84
2022-10-15T01:18:24.107Z,13.82
2022-10-15T01:19:24.117Z,13.82
2022-10-15T01:20:24.131Z,13.82
2022-10-15T01:21:24.146Z,13.82
2022-10-15T01:22:24.155Z,13.80
2022-10-15T01:23:25.277Z,13.79
2022-10-15T01:24:24.176Z,13.80
2022-10-15T01:25:24.193Z,13.79
2022-10-15T01:26:24.196Z,13.79
2022-10-15T01:27:24.508Z,13.80
2022-10-15T01:28:24.281Z,13.79
2022-10-15T01:29:24.226Z,13.79
2022-10-15T01:30:24.236Z,13.78
2022-10-15T01:31:24.254Z,13.77
2022-10-15T01:32:24.271Z,13.75
2022-10-15T01:33:24.273Z,13.74
2022-10-15T01:34:24.282Z,13.74
2022-10-15T01:35:24.294Z,13.71
2022-10-15T01:36:24.310Z,13.68
2022-10-15T01:37:24.599Z,13.65
2022-10-15T01:38:24.319Z,13.65
2022-10-15T01:39:24.327Z,13.63
2022-10-15T01:40:24.336Z,13.61
2022-10-15T01:41:24.337Z,13.60
2022-10-15T01:42:24.358Z,13.58
2022-10-15T01:43:24.368Z,13.54
2022-10-15T01:44:24.376Z,13.53
2022-10-15T01:45:24.395Z,13.51
2022-10-15T01:46:24.417Z,13.52
2022-10-15T01:47:24.622Z,13.51
2022-10-15T01:48:24.427Z,13.50
2022-10-15T01:49:24.433Z,13.51
2022-10-15T01:50:24.445Z,13.50
2022-10-15T01:51:24.458Z,13.52
2022-10-15T01:52:24.535Z,13.51
2022-10-15T01:53:24.481Z,13.51
2022-10-15T01:54:24.497Z,13.49
2022-10-15T01:55:24.502Z,13.49
2022-10-15T01:56:24.517Z,13.46
2022-10-15T01:57:24.878Z,13.47
2022-10-15T01:58:24.550Z,13.46
2022-10-15T01:59:24.558Z,13.46
2022-10-15T02:00:24.566Z,13.43
2022-10-15T02:01:24.673Z,13.43
2022-10-15T02:02:24.917Z,13.44
2022-10-15T02:03:24.599Z,13.44
2022-10-15T02:04:24.613Z,13.44
2022-10-15T02:05:24.633Z,13.43
2022-10-15T02:06:24.646Z,13.39
2022-10-15T02:07:24.654Z,13.37
2022-10-15T02:08:24.669Z,13.35
2022-10-15T02:09:24.681Z,13.33
2022-10-15T02:10:24.689Z,13.31
2022-10-15T02:11:24.702Z,13.31
2022-10-15T02:12:25.082Z,13.28
2022-10-15T02:13:24.725Z,13.27
2022-10-15T02:14:24.727Z,13.24
2022-10-15T02:15:24.739Z,13.20
2022-10-15T02:16:24.750Z,13.19
2022-10-15T02:17:24.756Z,13.15
2022-10-15T02:18:24.777Z,13.14
2022-10-15T02:19:24.784Z,13.11
2022-10-15T02:20:24.789Z,13.11
2022-10-15T02:21:24.800Z,13.10
2022-10-15T02:22:25.148Z,13.09
2022-10-15T02:23:24.822Z,13.07
2022-10-15T02:24:24.838Z,13.09
2022-10-15T02:25:24.975Z,13.08
2022-10-15T02:26:24.864Z,13.08
2022-10-15T02:27:24.871Z,13.07
2022-10-15T02:28:24.959Z,13.09
2022-10-15T02:29:24.897Z,13.08
2022-10-15T02:30:24.909Z,13.09
2022-10-15T02:31:24.923Z,13.08
2022-10-15T02:32:25.297Z,13.09
2022-10-15T02:33:24.945Z,13.06
2022-10-15T02:34:24.954Z,13.02
2022-10-15T02:35:24.983Z,12.97
2022-10-15T02:36:24.974Z,12.90
2022-10-15T02:37:24.990Z,12.83
2022-10-15T02:38:25.007Z,12.77
2022-10-15T02:39:25.011Z,12.73
2022-10-15T02:40:25.026Z,12.69
2022-10-15T02:41:25.043Z,12.67
2022-10-15T02:42:25.353Z,12.65
2022-10-15T02:43:25.060Z,12.65
2022-10-15T02:44:25.077Z,12.63
2022-10-15T02:45:25.089Z,12.63
2022-10-15T02:46:25.095Z,12.63
2022-10-15T02:48:25.121Z,12.63
2022-10-15T02:49:25.134Z,12.61
2022-10-15T02:50:25.145Z,12.59
2022-10-15T02:51:25.160Z,12.57
2022-10-15T02:52:25.668Z,12.52
2022-10-15T02:53:25.179Z,12.47
2022-10-15T02:54:25.195Z,12.42
2022-10-15T02:55:25.199Z,12.37
2022-10-15T02:56:25.221Z,12.34
2022-10-15T02:57:25.585Z,12.35
2022-10-15T02:58:25.225Z,12.38
2022-10-15T02:59:25.231Z,12.43
2022-10-15T03:00:25.238Z,12.45
2022-10-15T03:01:25.292Z,12.48
2022-10-15T03:02:25.263Z,12.52
2022-10-15T03:03:25.272Z,12.55
2022-10-15T03:04:25.281Z,12.58
2022-10-15T03:05:25.414Z,12.60
2022-10-15T03:06:25.300Z,12.66
2022-10-15T03:07:25.661Z,12.67
2022-10-15T03:08:25.319Z,12.68
2022-10-15T03:09:25.335Z,12.70
2022-10-15T03:10:25.356Z,12.70
2022-10-15T03:11:25.360Z,12.71
2022-10-15T03:12:25.372Z,12.69
2022-10-15T03:13:25.386Z,12.67
2022-10-15T03:14:25.434Z,12.64
2022-10-15T03:15:25.399Z,12.59
2022-10-15T03:16:25.417Z,12.55
2022-10-15T03:17:25.795Z,12.52
2022-10-15T03:18:25.445Z,12.50
2022-10-15T03:19:25.449Z,12.50
2022-10-15T03:20:25.461Z,12.47
2022-10-15T03:21:25.475Z,12.50
2022-10-15T03:22:25.487Z,12.48
2022-10-15T03:23:25.571Z,12.51
2022-10-15T03:24:25.499Z,12.55
2022-10-15T03:25:25.506Z,12.56
2022-10-15T03:26:25.512Z,12.58
2022-10-15T03:27:25.744Z,12.60
2022-10-15T03:28:25.569Z,12.62
2022-10-15T03:29:25.540Z,12.64
2022-10-15T03:30:25.547Z,12.61
2022-10-15T03:31:25.560Z,12.57
2022-10-15T03:32:25.625Z,12.50
2022-10-15T03:33:25.581Z,12.43
2022-10-15T03:34:25.590Z,12.31
2022-10-15T03:35:25.604Z,12.22
2022-10-15T03:36:25.617Z,12.13
2022-10-15T03:37:25.881Z,12.09
2022-10-15T03:38:25.639Z,12.02
2022-10-15T03:39:25.642Z,11.94
2022-10-15T03:40:25.656Z,11.88
2022-10-15T03:41:25.672Z,11.85
2022-10-15T03:42:25.922Z,11.81
2022-10-15T03:43:25.692Z,11.76
2022-10-15T03:44:25.709Z,11.71
2022-10-15T03:45:25.725Z,11.67
2022-10-15T03:46:25.740Z,11.63
2022-10-15T03:47:25.747Z,11.56
2022-10-15T03:48:25.752Z,11.53
2022-10-15T03:49:25.758Z,11.51
2022-10-15T03:50:25.764Z,11.48
2022-10-15T03:51:26.789Z,11.42
2022-10-15T03:52:26.007Z,11.40
2022-10-15T03:53:25.802Z,11.36
2022-10-15T03:54:25.811Z,11.32
2022-10-15T03:55:25.816Z,11.28
2022-10-15T03:56:25.824Z,11.25
2022-10-15T03:57:25.837Z,11.23
2022-10-15T03:58:25.845Z,11.24
2022-10-15T03:59:25.852Z,11.24
2022-10-15T04:00:25.866Z,11.23
2022-10-15T04:01:25.909Z,11.24
2022-10-15T04:02:26.165Z,11.24
2022-10-15T04:03:25.904Z,11.24
2022-10-15T04:04:25.924Z,11.22
2022-10-15T04:05:25.937Z,11.22
2022-10-15T04:06:25.942Z,11.25
2022-10-15T04:07:25.961Z,11.26
2022-10-15T04:08:25.964Z,11.30
2022-10-15T04:09:25.982Z,11.32
2022-10-15T04:10:25.997Z,11.35
2022-10-15T04:11:26.013Z,11.35
2022-10-15T04:12:26.420Z,11.36
2022-10-15T04:13:26.042Z,11.35
2022-10-15T04:14:26.052Z,11.31
2022-10-15T04:15:26.064Z,11.27
2022-10-15T04:16:26.071Z,11.20
2022-10-15T04:17:26.089Z,11.17
2022-10-15T04:18:26.094Z,11.12
2022-10-15T04:19:26.100Z,11.08
2022-10-15T04:20:26.101Z,11.04
2022-10-15T04:21:26.129Z,11.01
2022-10-15T04:22:26.551Z,10.97
2022-10-15T04:23:26.146Z,10.93
2022-10-15T04:24:26.158Z,10.88
2022-10-15T04:25:26.169Z,10.85
2022-10-15T04:26:26.184Z,10.82
2022-10-15T04:27:26.187Z,10.81
2022-10-15T04:28:26.219Z,10.77
2022-10-15T04:29:26.213Z,10.74
2022-10-15T04:30:26.215Z,10.78
2022-10-15T04:31:26.223Z,10.82
2022-10-15T04:32:26.431Z,10.90
2022-10-15T04:33:26.249Z,10.95
2022-10-15T04:34:26.264Z,10.98
2022-10-15T04:35:26.278Z,11.01
2022-10-15T04:36:26.284Z,11.06
2022-10-15T04:37:26.367Z,11.10
2022-10-15T04:38:26.330Z,11.16
2022-10-15T04:39:26.332Z,11.19
2022-10-15T04:40:26.352Z,11.21
2022-10-15T04:41:26.364Z,11.24
2022-10-15T04:42:26.373Z,11.28
2022-10-15T04:43:26.382Z,11.25
2022-10-15T04:44:26.394Z,11.24
2022-10-15T04:45:26.410Z,11.24
2022-10-15T04:46:26.425Z,11.24
2022-10-15T04:47:26.670Z,11.25
2022-10-15T04:48:26.444Z,11.27
2022-10-15T04:49:26.458Z,11.28
2022-10-15T04:50:26.476Z,11.30
2022-10-15T04:51:26.491Z,11.35
2022-10-15T04:52:26.508Z,11.36
2022-10-15T04:53:26.525Z,11.40
2022-10-15T04:55:26.547Z,11.46
2022-10-15T04:56:26.555Z,11.48
2022-10-15T04:57:26.769Z,11.50
2022-10-15T04:58:26.587Z,11.52
2022-10-15T04:59:26.603Z,11.56
2022-10-15T05:00:26.618Z,11.60
2022-10-15T05:01:26.622Z,11.58
2022-10-15T05:02:26.720Z,11.61
2022-10-15T05:03:26.689Z,11.64
2022-10-15T05:04:26.675Z,11.65
2022-10-15T05:05:26.676Z,11.67
2022-10-15T05:06:26.693Z,11.67
2022-10-15T05:07:27.036Z,11.70
2022-10-15T05:08:26.729Z,11.74
2022-10-15T05:09:26.734Z,11.77
2022-10-15T05:10:26.749Z,11.80
2022-10-15T05:11:26.773Z,11.82
2022-10-15T05:12:26.784Z,11.85
2022-10-15T05:13:26.802Z,11.87
2022-10-15T05:14:26.807Z,11.91
2022-10-15T05:15:26.821Z,11.94
2022-10-15T05:16:26.840Z,11.96
2022-10-15T05:17:26.970Z,11.98
2022-10-15T05:18:26.852Z,11.99
2022-10-15T05:19:26.866Z,11.97
2022-10-15T05:20:26.882Z,11.99
2022-10-15T05:21:26.892Z,12.00
2022-10-15T05:22:27.101Z,12.01
2022-10-15T05:23:26.924Z,11.99
2022-10-15T05:24:26.938Z,11.98
2022-10-15T05:25:26.957Z,12.00
2022-10-15T05:26:26.962Z,11.99
2022-10-15T05:27:26.979Z,12.02
2022-10-15T05:28:27.043Z,12.04
2022-10-15T05:29:27.012Z,12.06
2022-10-15T05:30:27.021Z,12.07
2022-10-15T05:31:27.023Z,12.06
2022-10-15T05:32:27.037Z,12.08
2022-10-15T05:33:27.047Z,12.10
2022-10-15T05:34:27.063Z,12.11
2022-10-15T05:35:27.080Z,12.12
2022-10-15T05:36:27.086Z,12.13
2022-10-15T05:37:27.099Z,12.15
2022-10-15T05:38:27.115Z,12.12
2022-10-15T05:39:27.128Z,12.10
2022-10-15T05:40:27.140Z,12.10
2022-10-15T05:41:27.157Z,12.11
2022-10-15T05:42:27.165Z,12.13
2022-10-15T05:43:27.172Z,12.15
2022-10-15T05:44:27.182Z,12.17
2022-10-15T05:45:27.195Z,12.20
2022-10-15T05:46:27.206Z,12.21
2022-10-15T05:47:27.335Z,12.23
2022-10-15T05:48:27.233Z,12.24
2022-10-15T05:49:27.233Z,12.26
2022-10-15T05:50:27.250Z,12.26
2022-10-15T05:51:27.265Z,12.28
2022-10-15T05:52:27.512Z,12.30
2022-10-15T05:53:27.291Z,12.30
2022-10-15T05:54:27.297Z,12.29
2022-10-15T05:55:27.314Z,12.31
2022-10-15T05:56:27.323Z,12.33
2022-10-15T05:57:27.345Z,12.30
2022-10-15T05:58:27.362Z,12.29
2022-10-15T05:59:27.375Z,12.29
2022-10-15T06:00:27.381Z,12.31
2022-10-15T06:01:27.390Z,12.32
2022-10-15T06:02:27.736Z,12.32
2022-10-15T06:03:27.415Z,12.32
2022-10-15T06:04:28.648Z,12.32
2022-10-15T06:05:27.436Z,12.31
2022-10-15T06:06:27.455Z,12.32
2022-10-15T06:07:27.460Z,12.32
2022-10-15T06:08:27.465Z,12.33
2022-10-15T06:09:27.473Z,12.37
2022-10-15T06:10:27.491Z,12.38
2022-10-15T06:11:27.497Z,12.41
2022-10-15T06:12:27.513Z,12.39
2022-10-15T06:13:27.531Z,12.39
2022-10-15T06:14:27.538Z,12.38
2022-10-15T06:15:27.549Z,12.40
2022-10-15T06:16:27.555Z,12.42
2022-10-15T06:17:27.564Z,12.41
2022-10-15T06:18:27.569Z,12.42
2022-10-15T06:19:27.584Z,12.40
2022-10-15T06:20:27.618Z,12.39
2022-10-15T06:21:27.611Z,12.36
2022-10-15T06:22:27.701Z,12.37
2022-10-15T06:23:27.642Z,12.40
2022-10-15T06:24:27.644Z,12.46
2022-10-15T06:25:27.652Z,12.48
2022-10-15T06:26:27.652Z,12.49
2022-10-15T06:27:27.667Z,12.52
2022-10-15T06:28:27.721Z,12.55
2022-10-15T06:29:27.702Z,12.58
2022-10-15T06:30:27.798Z,12.63
2022-10-15T06:31:27.721Z,12.65
2022-10-15T06:32:27.727Z,12.64
2022-10-15T06:33:27.753Z,12.66
2022-10-15T06:34:27.766Z,12.68
2022-10-15T06:35:27.780Z,12.68
2022-10-15T06:36:27.797Z,12.69
2022-10-15T06:37:27.805Z,12.67
2022-10-15T06:38:27.816Z,12.68
2022-10-15T06:39:27.825Z,12.69
2022-10-15T06:40:27.845Z,12.70
2022-10-15T06:41:27.853Z,12.66
2022-10-15T06:42:27.865Z,12.66
2022-10-15T06:43:28.803Z,12.69
2022-10-15T06:44:27.884Z,12.72
2022-10-15T06:45:27.889Z,12.70
2022-10-15T06:46:27.905Z,12.74
2022-10-15T06:47:27.918Z,12.78
2022-10-15T06:48:27.927Z,12.79
2022-10-15T06:49:27.936Z,12.81
2022-10-15T06:50:27.955Z,12.84
2022-10-15T06:51:27.965Z,12.87
2022-10-15T06:52:27.985Z,12.92
2022-10-15T06:53:27.995Z,12.92
2022-10-15T06:54:28.015Z,12.93
2022-10-15T06:55:28.016Z,12.94
2022-10-15T06:56:28.023Z,12.94
2022-10-15T06:57:28.035Z,12.96
2022-10-15T06:58:28.049Z,13.00
2022-10-15T06:59:28.097Z,13.02
2022-10-15T07:00:28.302Z,13.05
2022-10-15T07:01:28.074Z,13.05
2022-10-15T07:02:28.088Z,13.08
2022-10-15T07:03:28.093Z,13.08
2022-10-15T07:04:28.112Z,13.12
2022-10-15T07:05:28.118Z,13.12
2022-10-15T07:06:28.138Z,13.16
2022-10-15T07:07:28.143Z,13.16
2022-10-15T07:08:28.149Z,13.17
2022-10-15T07:09:28.154Z,13.20
2022-10-15T07:10:28.173Z,13.24
2022-10-15T07:11:28.195Z,13.27
2022-10-15T07:12:28.212Z,13.33
2022-10-15T07:13:28.216Z,13.38
2022-10-15T07:14:28.234Z,13.37
2022-10-15T07:15:28.244Z,13.40
2022-10-15T07:16:28.251Z,13.45
2022-10-15T07:17:28.264Z,13.48
2022-10-15T07:18:28.281Z,13.53
2022-10-15T07:19:28.286Z,13.57
2022-10-15T07:20:28.302Z,13.59
2022-10-15T07:21:28.311Z,13.62
2022-10-15T07:22:28.334Z,13.63
2022-10-15T07:23:28.341Z,13.66
2022-10-15T07:24:28.359Z,13.70
2022-10-15T07:25:28.367Z,13.72
2022-10-15T07:26:28.381Z,13.76
2022-10-15T07:27:28.392Z,13.76
2022-10-15T07:28:28.447Z,13.76
2022-10-15T07:29:28.412Z,13.76
2022-10-15T07:30:28.496Z,13.74
2022-10-15T07:31:28.440Z,13.73
2022-10-15T07:32:28.445Z,13.73
2022-10-15T07:33:28.457Z,13.73
2022-10-15T07:34:28.471Z,13.73
2022-10-15T07:35:28.480Z,13.73
2022-10-15T07:36:28.496Z,13.75
2022-10-15T07:37:28.506Z,13.76
2022-10-15T07:38:28.525Z,13.75
2022-10-15T07:39:28.533Z,13.77
2022-10-15T07:40:28.550Z,13.78
2022-10-15T07:41:28.557Z,13.80
2022-10-15T07:42:28.587Z,13.82
2022-10-15T07:43:28.588Z,13.82
2022-10-15T07:44:28.605Z,13.84
2022-10-15T07:45:28.615Z,13.86
2022-10-15T07:46:28.629Z,13.92
2022-10-15T07:47:28.637Z,13.96
2022-10-15T07:48:28.651Z,14.03
2022-10-15T07:49:28.656Z,14.04
2022-10-15T07:50:30.592Z,14.08
2022-10-15T07:51:28.686Z,14.10
2022-10-15T07:52:28.704Z,14.12
2022-10-15T07:53:28.712Z,14.15
2022-10-15T07:54:28.728Z,14.18
2022-10-15T07:55:28.733Z,14.25
2022-10-15T07:56:28.740Z,14.28
2022-10-15T07:57:28.747Z,14.35
2022-10-15T07:58:28.765Z,14.41
2022-10-15T07:59:28.784Z,14.44
2022-10-15T08:00:28.851Z,14.45
2022-10-15T08:01:28.820Z,14.48
2022-10-15T08:02:28.839Z,14.51
2022-10-15T08:03:28.849Z,14.53
2022-10-15T08:04:28.863Z,14.56
2022-10-15T08:05:28.882Z,14.58
2022-10-15T08:06:28.910Z,14.58
2022-10-15T08:07:28.908Z,14.62
2022-10-15T08:08:28.914Z,14.63
2022-10-15T08:09:28.935Z,14.62
2022-10-15T08:10:28.939Z,14.61
2022-10-15T08:11:28.944Z,14.62
2022-10-15T08:12:28.959Z,14.63
2022-10-15T08:13:28.985Z,14.61
2022-10-15T08:14:28.996Z,14.61
2022-10-15T08:15:29.017Z,14.61
2022-10-15T08:16:29.022Z,14.65
2022-10-15T08:17:29.027Z,14.71
2022-10-15T08:18:29.051Z,14.75
2022-10-15T08:19:29.065Z,14.76
2022-10-15T08:20:29.085Z,14.75
2022-10-15T08:21:29.092Z,14.77
2022-10-15T08:22:29.116Z,14.80
2022-10-15T08:23:29.116Z,14.79
2022-10-15T08:24:29.137Z,14.83
2022-10-15T08:25:29.143Z,14.80
2022-10-15T08:26:29.157Z,14.75
2022-10-15T08:27:29.164Z,14.70
2022-10-15T08:28:29.254Z,14.65
2022-10-15T08:29:29.186Z,14.61
2022-10-15T08:30:29.192Z,14.54
2022-10-15T08:31:29.204Z,14.49
2022-10-15T08:32:29.220Z,14.46
2022-10-15T08:33:29.230Z,14.45
2022-10-15T08:34:29.250Z,14.42
2022-10-15T08:35:29.254Z,14.38
2022-10-15T08:36:29.276Z,14.36
2022-10-15T08:37:29.285Z,14.35
2022-10-15T08:38:29.298Z,14.32
2022-10-15T08:39:29.304Z,14.34
2022-10-15T08:40:29.326Z,14.37
2022-10-15T08:41:29.332Z,14.39
2022-10-15T08:42:29.347Z,14.44
2022-10-15T08:43:29.358Z,14.47
2022-10-15T08:44:29.363Z,14.54
2022-10-15T08:45:29.373Z,14.57
2022-10-15T08:46:29.395Z,14.62
2022-10-15T08:47:29.401Z,14.66
2022-10-15T08:48:29.423Z,14.66
2022-10-15T08:49:29.427Z,14.69
2022-10-15T08:50:29.434Z,14.71
2022-10-15T08:51:29.445Z,14.75
2022-10-15T08:52:29.444Z,14.80
2022-10-15T08:53:29.466Z,14.85
2022-10-15T08:54:29.487Z,14.94
2022-10-15T08:55:29.511Z,14.93
2022-10-15T08:56:29.502Z,14.93
2022-10-15T08:57:29.513Z,14.94
2022-10-15T08:58:29.521Z,14.95
2022-10-15T08:59:29.527Z,14.98
2022-10-15T09:00:29.545Z,15.03
2022-10-15T09:01:29.553Z,15.06
2022-10-15T09:02:29.573Z,15.13
2022-10-15T09:03:29.587Z,15.21
2022-10-15T09:04:29.596Z,15.33
2022-10-15T09:05:29.600Z,15.34
2022-10-15T09:06:29.628Z,15.38
2022-10-15T09:07:29.631Z,15.38
2022-10-15T09:08:29.656Z,15.42
2022-10-15T09:09:29.659Z,15.44
2022-10-15T09:10:29.678Z,15.47
2022-10-15T09:11:29.684Z,15.46
2022-10-15T09:12:29.705Z,15.49
2022-10-15T09:13:29.744Z,15.52
2022-10-15T09:14:29.714Z,15.60
2022-10-15T09:15:29.723Z,15.67
2022-10-15T09:16:29.778Z,15.69
2022-10-15T09:17:29.772Z,15.70
2022-10-15T09:18:29.741Z,15.67
2022-10-15T09:19:29.747Z,15.64
2022-10-15T09:20:29.753Z,15.63
2022-10-15T09:21:29.760Z,15.54
2022-10-15T09:22:29.765Z,15.48
2022-10-15T09:23:29.774Z,15.46
2022-10-15T09:24:29.778Z,15.51
2022-10-15T09:25:31.252Z,15.50
2022-10-15T09:26:29.789Z,15.48
2022-10-15T09:27:29.795Z,15.45
2022-10-15T09:28:29.822Z,15.42
2022-10-15T09:29:29.807Z,15.43
2022-10-15T09:30:29.813Z,15.43
2022-10-15T09:31:29.819Z,15.41
2022-10-15T09:32:29.825Z,15.41
2022-10-15T09:33:29.830Z,15.45
2022-10-15T09:34:29.837Z,15.55
2022-10-15T09:35:29.850Z,15.60
2022-10-15T09:36:29.848Z,15.66
2022-10-15T09:37:29.853Z,15.69
2022-10-15T09:38:29.858Z,15.74
2022-10-15T09:39:29.866Z,15.73
2022-10-15T09:40:29.872Z,15.68
2022-10-15T09:41:29.877Z,15.64
2022-10-15T09:42:29.883Z,15.61
2022-10-15T09:43:29.894Z,15.57
2022-10-15T09:44:29.905Z,15.53
2022-10-15T09:45:29.910Z,15.49
2022-10-15T09:46:29.916Z,15.43
2022-10-15T09:47:29.939Z,15.42
2022-10-15T09:48:29.932Z,15.38
2022-10-15T09:49:33.970Z,15.39
2022-10-15T09:50:29.945Z,15.43
2022-10-15T09:51:29.956Z,15.47
2022-10-15T09:52:29.961Z,15.58
2022-10-15T09:53:29.975Z,15.61
2022-10-15T09:54:29.980Z,15.72
2022-10-15T09:55:29.991Z,15.80
2022-10-15T09:56:29.996Z,15.89
2022-10-15T09:57:30.006Z,15.97
2022-10-15T09:58:30.020Z,16.07
2022-10-15T09:59:30.034Z,16.19
2022-10-15T10:00:30.035Z,16.29
2022-10-15T10:01:30.036Z,16.39
2022-10-15T10:02:30.312Z,16.43
2022-10-15T10:03:30.047Z,16.46
2022-10-15T10:04:30.054Z,16.49
2022-10-15T10:05:30.062Z,16.50
2022-10-15T10:06:30.068Z,16.48
2022-10-15T10:07:30.074Z,16.41
2022-10-15T10:08:30.085Z,16.36
2022-10-15T10:09:30.087Z,16.29
2022-10-15T10:10:30.095Z,16.23
2022-10-15T10:11:30.101Z,16.15
2022-10-15T10:12:30.107Z,16.14
2022-10-15T10:13:30.112Z,16.10
2022-10-15T10:14:30.118Z,16.05
2022-10-15T10:15:30.124Z,16.02
2022-10-15T10:16:30.172Z,16.00
2022-10-15T10:17:30.186Z,15.98
2022-10-15T10:18:30.144Z,15.96
2022-10-15T10:19:30.148Z,15.99
2022-10-15T10:20:30.155Z,16.01
2022-10-15T10:21:30.163Z,16.04
2022-10-15T10:22:30.169Z,16.05
2022-10-15T10:23:30.176Z,16.04
2022-10-15T10:24:30.187Z,16.04
2022-10-15T10:25:30.196Z,16.00
2022-10-15T10:26:30.196Z,15.94
2022-10-15T10:27:30.212Z,15.87
2022-10-15T10:28:30.290Z,15.85
2022-10-15T10:29:34.695Z,15.79
2022-10-15T10:30:30.232Z,15.75
2022-10-15T10:31:30.235Z,15.76
2022-10-15T10:32:30.240Z,15.68
2022-10-15T10:33:30.251Z,15.64
2022-10-15T10:34:30.253Z,15.64
2022-10-15T10:35:30.261Z,15.60
2022-10-15T10:36:30.271Z,15.58
2022-10-15T10:37:30.270Z,15.52
2022-10-15T10:38:30.276Z,15.52
2022-10-15T10:39:30.284Z,15.50
2022-10-15T10:40:30.287Z,15.47
2022-10-15T10:41:30.294Z,15.44
2022-10-15T10:42:30.300Z,15.45
2022-10-15T10:43:30.307Z,15.46
2022-10-15T10:44:30.313Z,15.47
2022-10-15T10:45:30.331Z,15.49
2022-10-15T10:46:30.325Z,15.51
2022-10-15T10:47:30.334Z,15.53
2022-10-15T10:48:30.338Z,15.54
2022-10-15T10:49:30.342Z,15.53
2022-10-15T10:50:30.359Z,15.52
2022-10-15T10:51:30.356Z,15.48
2022-10-15T10:52:30.360Z,15.45
2022-10-15T10:53:30.367Z,15.45
2022-10-15T10:54:30.439Z,15.45
2022-10-15T10:55:30.384Z,15.46
2022-10-15T10:56:30.388Z,15.45
2022-10-15T10:57:30.392Z,15.45
2022-10-15T10:58:30.401Z,15.45
2022-10-15T10:59:30.404Z,15.45
2022-10-15T11:00:30.409Z,15.47
2022-10-15T11:01:30.417Z,15.50
2022-10-15T11:02:30.422Z,15.51
2022-10-15T11:03:30.427Z,15.49
2022-10-15T11:04:30.433Z,15.50
2022-10-15T11:05:30.443Z,15.49
2022-10-15T11:06:30.447Z,15.49
2022-10-15T11:07:30.453Z,15.49
2022-10-15T11:08:30.458Z,15.49
2022-10-15T11:09:30.464Z,15.52
2022-10-15T11:10:30.471Z,15.55
2022-10-15T11:11:30.476Z,15.59
2022-10-15T11:12:30.483Z,15.66
2022-10-15T11:13:31.277Z,15.72
2022-10-15T11:14:30.496Z,15.80
2022-10-15T11:15:30.506Z,15.89
2022-10-15T11:16:30.509Z,16.01
2022-10-15T11:17:30.514Z,16.07
2022-10-15T11:18:30.521Z,16.14
2022-10-15T11:20:44.443Z,16.29
2022-10-15T11:21:30.537Z,16.39
2022-10-15T11:22:30.545Z,16.52
2022-10-15T11:23:30.558Z,16.63
2022-10-15T11:24:37.821Z,16.73
2022-10-15T11:25:30.564Z,16.85
2022-10-15T11:26:36.978Z,16.98
2022-10-15T11:27:30.578Z,17.07
2022-10-15T11:28:30.605Z,17.17
2022-10-15T11:29:30.596Z,17.26
2022-10-15T11:30:30.600Z,17.34
2022-10-15T11:31:31.015Z,17.41
2022-10-15T11:32:37.368Z,17.50
2022-10-15T11:33:30.624Z,17.58
2022-10-15T11:34:30.634Z,17.66
2022-10-15T11:35:48.433Z,17.77
2022-10-15T11:36:30.644Z,17.89
2022-10-15T11:37:30.651Z,17.94
2022-10-15T11:38:30.658Z,17.97
2022-10-15T11:39:30.664Z,18.03
2022-10-15T11:41:30.676Z,18.11
2022-10-15T11:42:30.682Z,18.15
2022-10-15T11:43:30.690Z,18.16
2022-10-15T11:44:30.695Z,18.15
2022-10-15T11:45:30.703Z,18.18
2022-10-15T11:46:30.706Z,18.17
2022-10-15T11:47:30.713Z,18.15
2022-10-15T11:48:30.758Z,18.19
2022-10-15T11:49:30.756Z,18.18
2022-10-15T11:50:30.731Z,18.24
2022-10-15T11:51:30.738Z,18.27
2022-10-15T11:52:30.744Z,18.34
2022-10-15T11:53:30.749Z,18.41
2022-10-15T11:54:30.755Z,18.46
2022-10-15T11:55:30.761Z,18.50
2022-10-15T11:56:32.599Z,18.52
2022-10-15T11:57:30.773Z,18.49
2022-10-15T11:58:30.780Z,18.41
2022-10-15T11:59:30.787Z,18.33
2022-10-15T12:00:30.792Z,18.21
2022-10-15T12:01:30.798Z,18.09
2022-10-15T12:02:30.804Z,17.94
2022-10-15T12:03:30.811Z,17.84
2022-10-15T12:04:32.440Z,17.72
2022-10-15T12:05:30.823Z,17.60
2022-10-15T12:06:30.832Z,17.50
2022-10-15T12:07:30.835Z,17.43
2022-10-15T12:08:30.842Z,17.28
2022-10-15T12:09:30.845Z,17.25
2022-10-15T12:10:30.853Z,17.26
2022-10-15T12:11:30.862Z,17.27
2022-10-15T12:12:30.865Z,17.27
2022-10-15T12:13:30.872Z,17.28
2022-10-15T12:14:30.883Z,17.30
2022-10-15T12:15:30.889Z,17.35
2022-10-15T12:16:30.894Z,17.41
2022-10-15T12:17:30.905Z,17.49
2022-10-15T12:18:30.907Z,17.59
2022-10-15T12:19:30.913Z,17.65
2022-10-15T12:20:30.921Z,17.68
2022-10-15T12:21:30.924Z,17.73
2022-10-15T12:22:32.713Z,17.73
2022-10-15T12:23:30.935Z,17.70
2022-10-15T12:24:31.008Z,17.66
2022-10-15T12:25:30.954Z,17.61
2022-10-15T12:26:30.961Z,17.54
2022-10-15T12:27:30.965Z,17.46
2022-10-15T12:28:31.028Z,17.39
2022-10-15T12:29:31.087Z,17.35
2022-10-15T12:30:30.986Z,17.35
2022-10-15T12:31:33.949Z,17.34
2022-10-15T12:32:31.001Z,17.36
2022-10-15T12:33:31.004Z,17.35
2022-10-15T12:34:31.010Z,17.38
2022-10-15T12:35:31.017Z,17.36
2022-10-15T12:36:31.029Z,17.38
2022-10-15T12:37:31.030Z,17.38
2022-10-15T12:38:31.037Z,17.36
2022-10-15T12:39:47.986Z,17.36
2022-10-15T12:40:31.051Z,17.36
2022-10-15T12:41:31.054Z,17.36
2022-10-15T12:42:31.060Z,17.35
2022-10-15T12:43:31.067Z,17.35
2022-10-15T12:44:31.079Z,17.32
2022-10-15T12:45:32.681Z,17.32
2022-10-15T12:46:31.085Z,17.32
2022-10-15T12:47:31.090Z,17.31
2022-10-15T12:48:31.096Z,17.30
2022-10-15T12:49:31.104Z,17.33
2022-10-15T12:50:31.110Z,17.34
2022-10-15T12:51:31.115Z,17.35
2022-10-15T12:52:31.121Z,17.32
2022-10-15T12:53:31.186Z,17.32
2022-10-15T12:54:31.133Z,17.31
2022-10-15T12:55:31.139Z,17.27
2022-10-15T12:56:31.145Z,17.24
2022-10-15T12:57:31.152Z,17.20
2022-10-15T12:58:31.156Z,17.18
2022-10-15T12:59:31.162Z,17.15
2022-10-15T13:00:31.225Z,17.11
2022-10-15T13:01:31.227Z,17.05
2022-10-15T13:02:31.200Z,17.01
2022-10-15T13:03:31.191Z,16.98
2022-10-15T13:04:31.199Z,16.97
2022-10-15T13:05:31.205Z,16.95
2022-10-15T13:06:31.219Z,16.97
2022-10-15T13:07:31.219Z,17.01
2022-10-15T13:08:31.230Z,17.04
2022-10-15T13:09:31.237Z,17.06
2022-10-15T13:10:31.245Z,17.12
2022-10-15T13:11:31.250Z,17.17
2022-10-15T13:12:31.261Z,17.19
2022-10-15T13:13:31.266Z,17.20